sensor_id;sensor_type;location;lat;lon;timestamp;pressure;altitude;pressure_sealevel;temperature;humidity
6528;BME280;64597;42.664;23.256;2023-04-07T00:00:22;94286.75;;;3.27;48.77
6528;BME280;64597;42.664;23.256;2023-04-07T00:02:48;94286.94;;;3.32;49.01
6528;BME280;64597;42.664;23.256;2023-04-07T00:05:14;94290.56;;;3.38;48.79
6528;BME280;64597;42.664;23.256;2023-04-07T00:07:40;94292.97;;;3.32;48.20
6528;BME280;64597;42.664;23.256;2023-04-07T00:10:06;94281.34;;;3.35;48.34
6528;BME280;64597;42.664;23.256;2023-04-07T00:12:32;94285.34;;;3.31;48.93
6528;BME280;64597;42.664;23.256;2023-04-07T00:14:57;94289.72;;;3.24;48.83
6528;BME280;64597;42.664;23.256;2023-04-07T00:17:23;94277.09;;;3.21;48.38
6528;BME280;64597;42.664;23.256;2023-04-07T00:19:48;94276.09;;;3.22;48.40
6528;BME280;64597;42.664;23.256;2023-04-07T00:22:13;94284.13;;;3.20;48.95
6528;BME280;64597;42.664;23.256;2023-04-07T00:24:39;94282.94;;;3.23;49.14
6528;BME280;64597;42.664;23.256;2023-04-07T00:27:04;94281.09;;;3.23;48.75
6528;BME280;64597;42.664;23.256;2023-04-07T00:29:30;94277.53;;;3.24;48.76
6528;BME280;64597;42.664;23.256;2023-04-07T00:31:55;94282.94;;;3.29;49.13
6528;BME280;64597;42.664;23.256;2023-04-07T00:34:21;94279.72;;;3.27;48.74
6528;BME280;64597;42.664;23.256;2023-04-07T00:36:46;94274.50;;;3.27;48.81
6528;BME280;64597;42.664;23.256;2023-04-07T00:39:19;94276.09;;;3.22;49.58
6528;BME280;64597;42.664;23.256;2023-04-07T00:41:45;94281.69;;;3.19;49.34
6528;BME280;64597;42.664;23.256;2023-04-07T00:44:11;94268.06;;;3.10;49.28
6528;BME280;64597;42.664;23.256;2023-04-07T00:46:37;94274.50;;;3.14;48.76
6528;BME280;64597;42.664;23.256;2023-04-07T00:49:03;94282.50;;;3.19;49.28
6528;BME280;64597;42.664;23.256;2023-04-07T00:51:28;94280.47;;;3.15;49.36
6528;BME280;64597;42.664;23.256;2023-04-07T00:53:54;94277.28;;;3.06;49.62
6528;BME280;64597;42.664;23.256;2023-04-07T00:56:20;94281.22;;;2.96;49.36
6528;BME280;64597;42.664;23.256;2023-04-07T00:58:45;94273.44;;;3.02;49.51
6528;BME280;64597;42.664;23.256;2023-04-07T01:01:26;94278.84;;;3.07;49.50
6528;BME280;64597;42.664;23.256;2023-04-07T01:04:00;94275.06;;;3.10;49.32
6528;BME280;64597;42.664;23.256;2023-04-07T01:06:30;94278.28;;;3.12;49.49
6528;BME280;64597;42.664;23.256;2023-04-07T01:09:15;94262.44;;;3.07;49.55
6528;BME280;64597;42.664;23.256;2023-04-07T01:14:40;94266.00;;;2.99;50.15
6528;BME280;64597;42.664;23.256;2023-04-07T01:17:08;94267.19;;;2.97;50.09
6528;BME280;64597;42.664;23.256;2023-04-07T01:19:49;94264.22;;;3.00;50.28
6528;BME280;64597;42.664;23.256;2023-04-07T01:22:23;94268.03;;;3.04;49.46
6528;BME280;64597;42.664;23.256;2023-04-07T01:30:18;94270.06;;;3.15;49.13
6528;BME280;64597;42.664;23.256;2023-04-07T01:32:49;94260.25;;;3.17;49.43
6528;BME280;64597;42.664;23.256;2023-04-07T01:35:16;94263.69;;;3.24;49.21
6528;BME280;64597;42.664;23.256;2023-04-07T01:37:43;94253.25;;;3.24;48.75
6528;BME280;64597;42.664;23.256;2023-04-07T01:40:13;94257.09;;;3.28;48.41
6528;BME280;64597;42.664;23.256;2023-04-07T01:42:41;94238.00;;;3.21;48.26
6528;BME280;64597;42.664;23.256;2023-04-07T01:45:07;94254.69;;;3.26;47.53
6528;BME280;64597;42.664;23.256;2023-04-07T01:47:35;94237.25;;;3.33;46.30
6528;BME280;64597;42.664;23.256;2023-04-07T01:50:02;94249.69;;;3.38;46.44
6528;BME280;64597;42.664;23.256;2023-04-07T01:52:34;94250.50;;;3.45;46.52
6528;BME280;64597;42.664;23.256;2023-04-07T01:55:00;94249.13;;;3.49;46.97
6528;BME280;64597;42.664;23.256;2023-04-07T01:57:25;94254.50;;;3.54;46.81
6528;BME280;64597;42.664;23.256;2023-04-07T01:59:52;94240.50;;;3.55;47.11
6528;BME280;64597;42.664;23.256;2023-04-07T02:02:17;94252.50;;;3.56;47.04
6528;BME280;64597;42.664;23.256;2023-04-07T02:04:55;94240.69;;;3.47;46.19
6528;BME280;64597;42.664;23.256;2023-04-07T02:07:44;94235.66;;;3.32;46.01
6528;BME280;64597;42.664;23.256;2023-04-07T02:10:12;94234.25;;;3.30;46.61
6528;BME280;64597;42.664;23.256;2023-04-07T02:12:40;94236.25;;;3.28;47.10
6528;BME280;64597;42.664;23.256;2023-04-07T02:15:07;94237.66;;;3.30;46.99
6528;BME280;64597;42.664;23.256;2023-04-07T02:17:35;94236.03;;;3.29;46.21
6528;BME280;64597;42.664;23.256;2023-04-07T02:20:02;94222.56;;;3.13;46.02
6528;BME280;64597;42.664;23.256;2023-04-07T02:22:28;94242.06;;;3.30;45.38
6528;BME280;64597;42.664;23.256;2023-04-07T02:24:55;94243.84;;;3.29;45.62
6528;BME280;64597;42.664;23.256;2023-04-07T02:27:20;94236.06;;;3.23;45.67
6528;BME280;64597;42.664;23.256;2023-04-07T02:29:45;94248.09;;;3.37;46.14
6528;BME280;64597;42.664;23.256;2023-04-07T02:32:11;94234.88;;;3.39;46.72
6528;BME280;64597;42.664;23.256;2023-04-07T02:34:36;94237.44;;;3.32;46.15
6528;BME280;64597;42.664;23.256;2023-04-07T02:37:02;94247.31;;;3.43;45.40
6528;BME280;64597;42.664;23.256;2023-04-07T02:39:27;94251.50;;;3.44;46.03
6528;BME280;64597;42.664;23.256;2023-04-07T02:41:52;94240.06;;;3.52;46.55
6528;BME280;64597;42.664;23.256;2023-04-07T02:44:18;94250.50;;;3.58;45.97
6528;BME280;64597;42.664;23.256;2023-04-07T02:46:43;94244.91;;;3.61;45.93
6528;BME280;64597;42.664;23.256;2023-04-07T02:49:09;94249.72;;;3.58;45.76
6528;BME280;64597;42.664;23.256;2023-04-07T02:51:34;94239.09;;;3.53;43.87
6528;BME280;64597;42.664;23.256;2023-04-07T02:54:00;94247.28;;;3.50;44.93
6528;BME280;64597;42.664;23.256;2023-04-07T02:56:25;94252.94;;;3.53;45.58
6528;BME280;64597;42.664;23.256;2023-04-07T02:58:51;94256.53;;;3.59;45.67
6528;BME280;64597;42.664;23.256;2023-04-07T03:01:16;94249.09;;;3.62;45.89
6528;BME280;64597;42.664;23.256;2023-04-07T03:03:41;94263.94;;;3.55;45.45
6528;BME280;64597;42.664;23.256;2023-04-07T03:06:09;94261.94;;;3.70;44.82
6528;BME280;64597;42.664;23.256;2023-04-07T03:08:34;94245.69;;;3.68;44.95
6528;BME280;64597;42.664;23.256;2023-04-07T03:11:00;94238.69;;;3.62;45.41
6528;BME280;64597;42.664;23.256;2023-04-07T03:13:25;94264.38;;;3.72;45.13
6528;BME280;64597;42.664;23.256;2023-04-07T03:15:51;94259.75;;;3.74;44.64
6528;BME280;64597;42.664;23.256;2023-04-07T03:18:17;94255.94;;;3.76;44.99
6528;BME280;64597;42.664;23.256;2023-04-07T03:20:42;94257.75;;;3.76;44.58
6528;BME280;64597;42.664;23.256;2023-04-07T03:23:08;94255.16;;;3.76;44.43
6528;BME280;64597;42.664;23.256;2023-04-07T03:25:34;94255.13;;;3.82;44.09
6528;BME280;64597;42.664;23.256;2023-04-07T03:27:59;94253.75;;;3.73;43.47
6528;BME280;64597;42.664;23.256;2023-04-07T03:30:25;94250.53;;;3.78;44.61
6528;BME280;64597;42.664;23.256;2023-04-07T03:32:51;94246.53;;;3.82;44.57
6528;BME280;64597;42.664;23.256;2023-04-07T03:35:16;94252.94;;;3.79;43.72
6528;BME280;64597;42.664;23.256;2023-04-07T03:37:42;94245.72;;;3.81;44.43
6528;BME280;64597;42.664;23.256;2023-04-07T03:40:08;94246.09;;;3.78;44.68
6528;BME280;64597;42.664;23.256;2023-04-07T03:42:33;94252.94;;;3.79;43.77
6528;BME280;64597;42.664;23.256;2023-04-07T03:44:59;94247.72;;;3.79;44.76
6528;BME280;64597;42.664;23.256;2023-04-07T03:47:25;94254.53;;;3.80;44.27
6528;BME280;64597;42.664;23.256;2023-04-07T03:49:50;94251.31;;;3.78;44.03
6528;BME280;64597;42.664;23.256;2023-04-07T03:52:15;94237.28;;;3.66;44.22
6528;BME280;64597;42.664;23.256;2023-04-07T03:54:41;94252.94;;;3.79;44.38
6528;BME280;64597;42.664;23.256;2023-04-07T03:57:07;94247.31;;;3.63;44.40
6528;BME280;64597;42.664;23.256;2023-04-07T03:59:38;94245.31;;;3.71;44.68
6528;BME280;64597;42.664;23.256;2023-04-07T04:02:04;94247.69;;;3.66;45.04
6528;BME280;64597;42.664;23.256;2023-04-07T04:04:29;94244.50;;;3.58;44.88
6528;BME280;64597;42.664;23.256;2023-04-07T04:06:55;94253.31;;;3.57;44.97
6528;BME280;64597;42.664;23.256;2023-04-07T04:09:20;94259.34;;;3.57;45.22
6528;BME280;64597;42.664;23.256;2023-04-07T04:11:46;94261.13;;;3.57;45.91
6528;BME280;64597;42.664;23.256;2023-04-07T04:14:11;94263.75;;;3.63;45.60
6528;BME280;64597;42.664;23.256;2023-04-07T04:16:37;94266.16;;;3.65;45.54
6528;BME280;64597;42.664;23.256;2023-04-07T04:19:02;94273.19;;;3.71;45.59
6528;BME280;64597;42.664;23.256;2023-04-07T04:21:28;94276.59;;;3.78;45.83
6528;BME280;64597;42.664;23.256;2023-04-07T04:23:53;94263.34;;;3.73;45.12
6528;BME280;64597;42.664;23.256;2023-04-07T04:26:18;94270.00;;;3.82;44.64
6528;BME280;64597;42.664;23.256;2023-04-07T04:28:45;94258.13;;;3.73;45.12
6528;BME280;64597;42.664;23.256;2023-04-07T04:31:10;94258.34;;;3.71;44.34
6528;BME280;64597;42.664;23.256;2023-04-07T04:33:36;94253.34;;;3.70;44.45
6528;BME280;64597;42.664;23.256;2023-04-07T04:36:01;94261.56;;;3.80;44.87
6528;BME280;64597;42.664;23.256;2023-04-07T04:38:27;94265.56;;;3.82;44.54
6528;BME280;64597;42.664;23.256;2023-04-07T04:40:52;94263.97;;;3.88;45.59
6528;BME280;64597;42.664;23.256;2023-04-07T04:43:17;94272.59;;;4.01;44.92
6528;BME280;64597;42.664;23.256;2023-04-07T04:45:43;94272.59;;;3.95;44.09
6528;BME280;64597;42.664;23.256;2023-04-07T04:48:08;94274.59;;;3.99;43.47
6528;BME280;64597;42.664;23.256;2023-04-07T04:50:35;94275.00;;;3.96;43.60
6528;BME280;64597;42.664;23.256;2023-04-07T04:53:00;94277.19;;;3.99;44.02
6528;BME280;64597;42.664;23.256;2023-04-07T04:55:27;94266.16;;;4.04;43.37
6528;BME280;64597;42.664;23.256;2023-04-07T04:57:52;94264.38;;;4.04;43.36
6528;BME280;64597;42.664;23.256;2023-04-07T05:00:18;94268.56;;;4.18;42.79
6528;BME280;64597;42.664;23.256;2023-04-07T05:02:43;94286.22;;;4.23;42.15
6528;BME280;64597;42.664;23.256;2023-04-07T05:05:12;94287.81;;;4.31;42.64
6528;BME280;64597;42.664;23.256;2023-04-07T05:07:37;94289.22;;;4.33;43.81
6528;BME280;64597;42.664;23.256;2023-04-07T05:10:06;94288.59;;;4.38;42.38
6528;BME280;64597;42.664;23.256;2023-04-07T05:12:37;94294.41;;;4.40;42.88
6528;BME280;64597;42.664;23.256;2023-04-07T05:15:07;94288.38;;;4.59;42.38
6528;BME280;64597;42.664;23.256;2023-04-07T05:17:39;94290.16;;;4.65;42.76
6528;BME280;64597;42.664;23.256;2023-04-07T05:20:19;94295.97;;;4.73;41.65
6528;BME280;64597;42.664;23.256;2023-04-07T05:22:46;94290.09;;;4.91;41.20
6528;BME280;64597;42.664;23.256;2023-04-07T05:25:15;94293.47;;;5.05;40.71
6528;BME280;64597;42.664;23.256;2023-04-07T05:27:44;94307.28;;;5.18;40.03
6528;BME280;64597;42.664;23.256;2023-04-07T05:30:10;94293.63;;;5.10;40.05
6528;BME280;64597;42.664;23.256;2023-04-07T05:32:36;94311.69;;;5.18;40.08
6528;BME280;64597;42.664;23.256;2023-04-07T05:35:02;94309.47;;;5.21;41.24
6528;BME280;64597;42.664;23.256;2023-04-07T05:37:27;94299.53;;;5.36;40.42
6528;BME280;64597;42.664;23.256;2023-04-07T05:39:53;94300.56;;;5.35;40.41
6528;BME280;64597;42.664;23.256;2023-04-07T05:42:18;94305.53;;;5.50;40.37
6528;BME280;64597;42.664;23.256;2023-04-07T05:44:44;94305.22;;;5.64;40.22
6528;BME280;64597;42.664;23.256;2023-04-07T05:47:09;94304.63;;;5.62;38.79
6528;BME280;64597;42.664;23.256;2023-04-07T05:49:35;94305.91;;;5.53;38.91
6528;BME280;64597;42.664;23.256;2023-04-07T05:52:01;94303.53;;;5.45;39.68
6528;BME280;64597;42.664;23.256;2023-04-07T05:54:27;94305.13;;;5.46;38.97
6528;BME280;64597;42.664;23.256;2023-04-07T05:56:53;94320.06;;;5.33;39.27
6528;BME280;64597;42.664;23.256;2023-04-07T05:59:18;94302.00;;;5.31;38.89
6528;BME280;64597;42.664;23.256;2023-04-07T06:01:44;94310.97;;;5.42;40.29
6528;BME280;64597;42.664;23.256;2023-04-07T06:04:09;94294.34;;;5.67;38.93
6528;BME280;64597;42.664;23.256;2023-04-07T06:06:35;94297.78;;;5.99;38.48
6528;BME280;64597;42.664;23.256;2023-04-07T06:09:00;94285.13;;;5.96;38.59
6528;BME280;64597;42.664;23.256;2023-04-07T06:11:26;94290.78;;;5.93;38.21
6528;BME280;64597;42.664;23.256;2023-04-07T06:13:52;94296.59;;;6.20;37.52
6528;BME280;64597;42.664;23.256;2023-04-07T06:16:17;94308.19;;;6.06;38.03
6528;BME280;64597;42.664;23.256;2023-04-07T06:18:43;94293.91;;;6.33;37.29
6528;BME280;64597;42.664;23.256;2023-04-07T06:21:08;94290.50;;;6.50;37.11
6528;BME280;64597;42.664;23.256;2023-04-07T06:23:33;94298.09;;;6.34;36.99
6528;BME280;64597;42.664;23.256;2023-04-07T06:25:59;94285.13;;;6.21;37.16
6528;BME280;64597;42.664;23.256;2023-04-07T06:28:24;94295.88;;;6.13;37.12
6528;BME280;64597;42.664;23.256;2023-04-07T06:30:50;94289.34;;;6.22;37.37
6528;BME280;64597;42.664;23.256;2023-04-07T06:33:15;94303.34;;;6.34;37.50
6528;BME280;64597;42.664;23.256;2023-04-07T06:35:41;94294.06;;;6.81;36.68
6528;BME280;64597;42.664;23.256;2023-04-07T06:38:07;94289.47;;;6.94;35.75
6528;BME280;64597;42.664;23.256;2023-04-07T06:40:32;94289.22;;;6.78;36.39
6528;BME280;64597;42.664;23.256;2023-04-07T06:42:57;94258.72;;;6.47;36.70
6528;BME280;64597;42.664;23.256;2023-04-07T06:45:23;94295.56;;;6.88;36.36
6528;BME280;64597;42.664;23.256;2023-04-07T06:47:48;94291.22;;;6.82;36.01
6528;BME280;64597;42.664;23.256;2023-04-07T06:50:14;94294.31;;;7.57;35.64
6528;BME280;64597;42.664;23.256;2023-04-07T06:52:41;94289.31;;;7.55;35.25
6528;BME280;64597;42.664;23.256;2023-04-07T06:55:07;94304.13;;;7.49;35.27
6528;BME280;64597;42.664;23.256;2023-04-07T06:57:33;94303.34;;;7.61;34.91
6528;BME280;64597;42.664;23.256;2023-04-07T06:59:58;94295.34;;;8.26;34.74
6528;BME280;64597;42.664;23.256;2023-04-07T07:02:24;94298.00;;;9.07;34.00
6528;BME280;64597;42.664;23.256;2023-04-07T07:04:50;94300.88;;;9.74;32.24
6528;BME280;64597;42.664;23.256;2023-04-07T07:07:15;94297.09;;;10.43;31.93
6528;BME280;64597;42.664;23.256;2023-04-07T07:09:41;94303.19;;;10.60;30.91
6528;BME280;64597;42.664;23.256;2023-04-07T07:12:06;94299.34;;;10.67;29.84
6528;BME280;64597;42.664;23.256;2023-04-07T07:14:32;94299.91;;;10.53;31.05
6528;BME280;64597;42.664;23.256;2023-04-07T07:16:57;94300.84;;;10.47;30.37
6528;BME280;64597;42.664;23.256;2023-04-07T07:19:22;94301.22;;;10.06;31.23
6528;BME280;64597;42.664;23.256;2023-04-07T07:21:48;94299.56;;;9.88;30.66
6528;BME280;64597;42.664;23.256;2023-04-07T07:24:13;94318.44;;;9.68;31.63
6528;BME280;64597;42.664;23.256;2023-04-07T07:26:39;94323.19;;;9.43;31.69
6528;BME280;64597;42.664;23.256;2023-04-07T07:29:06;94318.13;;;8.67;32.98
6528;BME280;64597;42.664;23.256;2023-04-07T07:31:31;94323.16;;;8.80;33.84
6528;BME280;64597;42.664;23.256;2023-04-07T07:33:56;94308.88;;;8.88;33.51
6528;BME280;64597;42.664;23.256;2023-04-07T07:36:22;94326.94;;;9.07;33.85
6528;BME280;64597;42.664;23.256;2023-04-07T07:38:49;94307.72;;;9.07;32.40
6528;BME280;64597;42.664;23.256;2023-04-07T07:41:16;94338.94;;;9.03;32.96
6528;BME280;64597;42.664;23.256;2023-04-07T07:43:41;94344.38;;;9.25;33.47
6528;BME280;64597;42.664;23.256;2023-04-07T07:46:07;94336.16;;;9.10;32.39
6528;BME280;64597;42.664;23.256;2023-04-07T07:48:32;94336.53;;;9.13;32.44
6528;BME280;64597;42.664;23.256;2023-04-07T07:50:58;94342.13;;;9.05;32.28
6528;BME280;64597;42.664;23.256;2023-04-07T07:53:23;94343.72;;;8.83;32.37
6528;BME280;64597;42.664;23.256;2023-04-07T07:55:49;94325.91;;;8.62;33.10
6528;BME280;64597;42.664;23.256;2023-04-07T07:58:14;94328.63;;;8.44;33.88
6528;BME280;64597;42.664;23.256;2023-04-07T08:00:40;94344.50;;;8.61;33.73
6528;BME280;64597;42.664;23.256;2023-04-07T08:03:05;94338.25;;;8.85;33.80
6528;BME280;64597;42.664;23.256;2023-04-07T08:05:31;94313.00;;;8.72;32.88
6528;BME280;64597;42.664;23.256;2023-04-07T08:07:56;94325.66;;;9.22;32.33
6528;BME280;64597;42.664;23.256;2023-04-07T08:10:22;94338.66;;;9.40;32.77
6528;BME280;64597;42.664;23.256;2023-04-07T08:12:49;94333.31;;;9.63;32.73
6528;BME280;64597;42.664;23.256;2023-04-07T08:15:14;94340.75;;;9.94;31.51
6528;BME280;64597;42.664;23.256;2023-04-07T08:17:40;94333.41;;;9.96;31.19
6528;BME280;64597;42.664;23.256;2023-04-07T08:20:06;94337.38;;;9.82;31.68
6528;BME280;64597;42.664;23.256;2023-04-07T08:22:32;94337.53;;;9.64;31.68
6528;BME280;64597;42.664;23.256;2023-04-07T08:24:57;94335.97;;;9.51;32.17
6528;BME280;64597;42.664;23.256;2023-04-07T08:27:23;94343.63;;;9.64;32.32
6528;BME280;64597;42.664;23.256;2023-04-07T08:30:04;94344.06;;;9.61;32.16
6528;BME280;64597;42.664;23.256;2023-04-07T08:32:36;94346.56;;;9.68;32.48
6528;BME280;64597;42.664;23.256;2023-04-07T08:35:01;94343.22;;;9.33;32.50
6528;BME280;64597;42.664;23.256;2023-04-07T08:37:27;94329.63;;;9.24;32.41
6528;BME280;64597;42.664;23.256;2023-04-07T08:39:52;94331.94;;;9.21;32.76
6528;BME280;64597;42.664;23.256;2023-04-07T08:42:19;94332.59;;;9.67;33.09
6528;BME280;64597;42.664;23.256;2023-04-07T08:44:47;94341.31;;;10.24;32.45
6528;BME280;64597;42.664;23.256;2023-04-07T08:47:14;94324.59;;;10.63;31.33
6528;BME280;64597;42.664;23.256;2023-04-07T08:49:43;94330.16;;;10.84;30.10
6528;BME280;64597;42.664;23.256;2023-04-07T08:52:11;94315.97;;;10.68;30.83
6528;BME280;64597;42.664;23.256;2023-04-07T08:54:40;94327.47;;;10.78;30.50
6528;BME280;64597;42.664;23.256;2023-04-07T08:57:07;94326.88;;;11.53;29.65
6528;BME280;64597;42.664;23.256;2023-04-07T08:59:33;94326.34;;;11.94;27.61
6528;BME280;64597;42.664;23.256;2023-04-07T09:01:59;94319.41;;;12.36;27.62
6528;BME280;64597;42.664;23.256;2023-04-07T09:04:25;94319.88;;;12.07;28.30
6528;BME280;64597;42.664;23.256;2023-04-07T09:06:51;94316.97;;;11.82;28.57
6528;BME280;64597;42.664;23.256;2023-04-07T09:09:17;94324.47;;;11.68;28.32
6528;BME280;64597;42.664;23.256;2023-04-07T09:11:42;94312.66;;;11.97;29.41
6528;BME280;64597;42.664;23.256;2023-04-07T09:14:08;94311.38;;;12.26;28.95
6528;BME280;64597;42.664;23.256;2023-04-07T09:16:33;94329.41;;;12.66;27.95
6528;BME280;64597;42.664;23.256;2023-04-07T09:18:59;94326.69;;;12.24;28.39
6528;BME280;64597;42.664;23.256;2023-04-07T09:21:25;94322.38;;;11.92;28.65
6528;BME280;64597;42.664;23.256;2023-04-07T09:23:51;94329.72;;;11.90;29.76
6528;BME280;64597;42.664;23.256;2023-04-07T09:28:46;94325.00;;;12.18;29.29
6528;BME280;64597;42.664;23.256;2023-04-07T09:31:12;94324.47;;;12.16;29.38
6528;BME280;64597;42.664;23.256;2023-04-07T09:33:37;94341.03;;;12.33;29.18
6528;BME280;64597;42.664;23.256;2023-04-07T09:36:04;94335.84;;;12.43;28.97
6528;BME280;64597;42.664;23.256;2023-04-07T09:38:35;94323.44;;;12.49;29.15
6528;BME280;64597;42.664;23.256;2023-04-07T09:41:09;94346.25;;;12.55;29.21
6528;BME280;64597;42.664;23.256;2023-04-07T09:43:37;94339.72;;;12.63;29.22
6528;BME280;64597;42.664;23.256;2023-04-07T09:48:33;94336.50;;;12.92;28.48
6528;BME280;64597;42.664;23.256;2023-04-07T09:51:10;94347.06;;;13.24;28.17
6528;BME280;64597;42.664;23.256;2023-04-07T09:56:12;94331.28;;;13.44;27.61
6528;BME280;64597;42.664;23.256;2023-04-07T09:58:38;94324.75;;;13.57;27.87
6528;BME280;64597;42.664;23.256;2023-04-07T10:01:06;94347.44;;;14.04;27.94
6528;BME280;64597;42.664;23.256;2023-04-07T10:03:33;94334.47;;;14.13;27.27
6528;BME280;64597;42.664;23.256;2023-04-07T10:06:04;94341.94;;;14.26;27.29
6528;BME280;64597;42.664;23.256;2023-04-07T10:08:34;94337.16;;;14.18;26.74
6528;BME280;64597;42.664;23.256;2023-04-07T10:11:03;94334.72;;;14.06;26.45
6528;BME280;64597;42.664;23.256;2023-04-07T10:13:30;94338.16;;;14.02;27.20
6528;BME280;64597;42.664;23.256;2023-04-07T10:15:57;94329.00;;;13.63;27.04
6528;BME280;64597;42.664;23.256;2023-04-07T10:18:28;94342.47;;;13.56;26.87
6528;BME280;64597;42.664;23.256;2023-04-07T10:20:59;94330.00;;;13.52;28.18
6528;BME280;64597;42.664;23.256;2023-04-07T10:26:40;94329.50;;;13.55;27.42
6528;BME280;64597;42.664;23.256;2023-04-07T10:29:09;94334.66;;;13.30;27.25
6528;BME280;64597;42.664;23.256;2023-04-07T10:31:37;94343.81;;;13.12;27.93
6528;BME280;64597;42.664;23.256;2023-04-07T10:34:03;94342.00;;;13.17;27.97
6528;BME280;64597;42.664;23.256;2023-04-07T10:36:29;94346.50;;;13.17;28.44
6528;BME280;64597;42.664;23.256;2023-04-07T10:41:34;94360.25;;;13.19;28.03
6528;BME280;64597;42.664;23.256;2023-04-07T10:44:01;94358.09;;;13.11;28.81
6528;BME280;64597;42.664;23.256;2023-04-07T10:49:13;94362.81;;;13.04;29.55
6528;BME280;64597;42.664;23.256;2023-04-07T10:51:39;94360.38;;;13.02;30.20
6528;BME280;64597;42.664;23.256;2023-04-07T10:54:21;94364.41;;;13.05;30.16
6528;BME280;64597;42.664;23.256;2023-04-07T10:59:28;94364.63;;;12.72;30.92
6528;BME280;64597;42.664;23.256;2023-04-07T11:04:41;94363.09;;;12.76;31.01
6528;BME280;64597;42.664;23.256;2023-04-07T11:07:07;94355.75;;;12.83;31.28
6528;BME280;64597;42.664;23.256;2023-04-07T11:09:33;94368.78;;;12.94;31.33
6528;BME280;64597;42.664;23.256;2023-04-07T11:11:58;94369.13;;;13.03;31.34
6528;BME280;64597;42.664;23.256;2023-04-07T11:14:27;94363.00;;;12.97;31.26
6528;BME280;64597;42.664;23.256;2023-04-07T11:16:53;94365.09;;;12.95;31.15
6528;BME280;64597;42.664;23.256;2023-04-07T11:19:18;94360.50;;;12.86;30.95
6528;BME280;64597;42.664;23.256;2023-04-07T11:21:44;94347.66;;;12.63;31.51
6528;BME280;64597;42.664;23.256;2023-04-07T11:24:10;94362.69;;;12.57;31.81
6528;BME280;64597;42.664;23.256;2023-04-07T11:26:37;94365.00;;;12.54;31.49
6528;BME280;64597;42.664;23.256;2023-04-07T11:29:03;94347.41;;;12.37;31.60
6528;BME280;64597;42.664;23.256;2023-04-07T11:31:29;94348.31;;;12.21;31.57
6528;BME280;64597;42.664;23.256;2023-04-07T11:34:13;94364.88;;;12.38;30.43
6528;BME280;64597;42.664;23.256;2023-04-07T11:36:40;94365.06;;;12.32;30.79
6528;BME280;64597;42.664;23.256;2023-04-07T11:39:20;94370.25;;;12.22;31.78
6528;BME280;64597;42.664;23.256;2023-04-07T11:41:47;94377.75;;;12.30;32.11
6528;BME280;64597;42.664;23.256;2023-04-07T11:44:13;94367.97;;;12.30;32.17
6528;BME280;64597;42.664;23.256;2023-04-07T11:46:58;94377.50;;;12.31;32.18
6528;BME280;64597;42.664;23.256;2023-04-07T11:49:25;94372.66;;;12.23;32.21
6528;BME280;64597;42.664;23.256;2023-04-07T11:52:04;94376.13;;;12.29;32.11
6528;BME280;64597;42.664;23.256;2023-04-07T11:54:44;94360.69;;;12.16;32.57
6528;BME280;64597;42.664;23.256;2023-04-07T11:57:26;94377.66;;;12.20;32.89
6528;BME280;64597;42.664;23.256;2023-04-07T12:00:08;94365.81;;;12.27;33.63
6528;BME280;64597;42.664;23.256;2023-04-07T12:02:35;94352.41;;;12.07;33.37
6528;BME280;64597;42.664;23.256;2023-04-07T12:05:01;94366.38;;;12.29;33.66
6528;BME280;64597;42.664;23.256;2023-04-07T12:07:26;94369.09;;;12.39;32.94
6528;BME280;64597;42.664;23.256;2023-04-07T12:09:53;94366.56;;;12.23;33.25
6528;BME280;64597;42.664;23.256;2023-04-07T12:12:28;94373.91;;;12.16;33.73
6528;BME280;64597;42.664;23.256;2023-04-07T12:14:54;94367.44;;;12.07;33.65
6528;BME280;64597;42.664;23.256;2023-04-07T12:17:25;94361.44;;;12.11;33.66
6528;BME280;64597;42.664;23.256;2023-04-07T12:19:51;94369.94;;;12.18;33.40
6528;BME280;64597;42.664;23.256;2023-04-07T12:22:17;94366.81;;;12.21;33.34
6528;BME280;64597;42.664;23.256;2023-04-07T12:24:43;94360.88;;;12.09;33.48
6528;BME280;64597;42.664;23.256;2023-04-07T12:27:08;94369.25;;;12.01;34.00
6528;BME280;64597;42.664;23.256;2023-04-07T12:29:34;94375.56;;;12.00;34.09
6528;BME280;64597;42.664;23.256;2023-04-07T12:32:01;94359.91;;;11.94;33.96
6528;BME280;64597;42.664;23.256;2023-04-07T12:34:27;94369.34;;;12.11;33.95
6528;BME280;64597;42.664;23.256;2023-04-07T12:36:52;94365.28;;;12.25;33.61
6528;BME280;64597;42.664;23.256;2023-04-07T12:39:18;94368.66;;;12.21;33.19
6528;BME280;64597;42.664;23.256;2023-04-07T12:41:43;94370.50;;;12.20;33.34
6528;BME280;64597;42.664;23.256;2023-04-07T12:44:10;94366.56;;;12.23;33.40
6528;BME280;64597;42.664;23.256;2023-04-07T12:46:35;94364.63;;;12.40;33.07
6528;BME280;64597;42.664;23.256;2023-04-07T12:49:01;94363.28;;;12.37;33.16
6528;BME280;64597;42.664;23.256;2023-04-07T12:51:27;94355.41;;;12.16;33.63
6528;BME280;64597;42.664;23.256;2023-04-07T12:53:53;94360.69;;;12.16;33.49
6528;BME280;64597;42.664;23.256;2023-04-07T12:56:19;94364.91;;;12.17;33.46
6528;BME280;64597;42.664;23.256;2023-04-07T12:58:49;94363.97;;;12.01;33.54
6528;BME280;64597;42.664;23.256;2023-04-07T13:01:15;94375.50;;;11.95;34.14
6528;BME280;64597;42.664;23.256;2023-04-07T13:03:40;94376.63;;;11.99;34.00
6528;BME280;64597;42.664;23.256;2023-04-07T13:06:06;94376.88;;;11.98;34.00
6528;BME280;64597;42.664;23.256;2023-04-07T13:08:31;94376.09;;;12.02;34.15
6528;BME280;64597;42.664;23.256;2023-04-07T13:10:57;94378.97;;;11.96;34.64
6528;BME280;64597;42.664;23.256;2023-04-07T13:13:22;94367.28;;;11.92;34.96
6528;BME280;64597;42.664;23.256;2023-04-07T13:15:48;94375.50;;;11.95;34.72
6528;BME280;64597;42.664;23.256;2023-04-07T13:18:13;94382.81;;;11.88;34.68
6528;BME280;64597;42.664;23.256;2023-04-07T13:20:39;94364.31;;;11.88;34.86
6528;BME280;64597;42.664;23.256;2023-04-07T13:23:04;94376.50;;;11.89;34.63
6528;BME280;64597;42.664;23.256;2023-04-07T13:25:30;94321.22;;;11.61;34.40
6528;BME280;64597;42.664;23.256;2023-04-07T13:27:55;94381.09;;;11.99;34.67
6528;BME280;64597;42.664;23.256;2023-04-07T13:30:21;94385.47;;;11.88;35.05
6528;BME280;64597;42.664;23.256;2023-04-07T13:32:46;94393.75;;;11.97;35.03
6528;BME280;64597;42.664;23.256;2023-04-07T13:35:15;94392.22;;;12.01;35.18